sensor_id;sensor_type;location;lat;lon;timestamp;P1;durP1;ratioP1;P2;durP2;ratioP2
55300;SDS011;58302;51.446;-2.000;2023-10-13T00:01:08;0.85;;;0.40;;
55300;SDS011;58302;51.446;-2.000;2023-10-13T00:03:37;1.45;;;0.20;;
55300;SDS011;58302;51.446;-2.000;2023-10-13T00:06:05;0.45;;;0.40;;
55300;SDS011;58302;51.446;-2.000;2023-10-13T00:08:31;0.38;;;0.38;;
55300;SDS011;58302;51.446;-2.000;2023-10-13T00:10:57;0.40;;;0.38;;
55300;SDS011;58302;51.446;-2.000;2023-10-13T00:13:26;0.47;;;0.45;;
55300;SDS011;58302;51.446;-2.000;2023-10-13T00:15:53;0.55;;;0.30;;
55300;SDS011;58302;51.446;-2.000;2023-10-13T00:18:26;0.65;;;0.40;;
55300;SDS011;58302;51.446;-2.000;2023-10-13T00:20:53;0.30;;;0.30;;
55300;SDS011;58302;51.446;-2.000;2023-10-13T00:23:22;0.25;;;0.10;;
55300;SDS011;58302;51.446;-2.000;2023-10-13T00:25:49;0.40;;;0.40;;
55300;SDS011;58302;51.446;-2.000;2023-10-13T00:28:18;0.40;;;0.40;;
55300;SDS011;58302;51.446;-2.000;2023-10-13T00:31:01;0.47;;;0.40;;
55300;SDS011;58302;51.446;-2.000;2023-10-13T00:33:47;1.08;;;0.30;;
55300;SDS011;58302;51.446;-2.000;2023-10-13T00:36:16;0.30;;;0.30;;
55300;SDS011;58302;51.446;-2.000;2023-10-13T00:38:45;1.65;;;0.82;;
55300;SDS011;58302;51.446;-2.000;2023-10-13T00:41:15;1.60;;;0.57;;
55300;SDS011;58302;51.446;-2.000;2023-10-13T00:43:46;2.75;;;1.48;;
55300;SDS011;58302;51.446;-2.000;2023-10-13T00:46:31;2.85;;;1.92;;
55300;SDS011;58302;51.446;-2.000;2023-10-13T00:48:59;5.35;;;2.75;;
55300;SDS011;58302;51.446;-2.000;2023-10-13T00:51:27;4.60;;;2.40;;
55300;SDS011;58302;51.446;-2.000;2023-10-13T00:54:05;3.53;;;2.67;;
55300;SDS011;58302;51.446;-2.000;2023-10-13T00:56:41;6.93;;;3.35;;
55300;SDS011;58302;51.446;-2.000;2023-10-13T00:59:36;6.30;;;3.72;;
55300;SDS011;58302;51.446;-2.000;2023-10-13T01:02:03;7.20;;;3.38;;
55300;SDS011;58302;51.446;-2.000;2023-10-13T01:04:55;7.40;;;3.78;;
55300;SDS011;58302;51.446;-2.000;2023-10-13T01:07:21;7.22;;;5.07;;
55300;SDS011;58302;51.446;-2.000;2023-10-13T01:09:48;9.07;;;4.45;;
55300;SDS011;58302;51.446;-2.000;2023-10-13T01:12:15;5.20;;;3.50;;
55300;SDS011;58302;51.446;-2.000;2023-10-13T01:14:41;8.95;;;4.65;;
55300;SDS011;58302;51.446;-2.000;2023-10-13T01:17:07;6.00;;;5.03;;
55300;SDS011;58302;51.446;-2.000;2023-10-13T01:19:36;6.70;;;4.65;;
55300;SDS011;58302;51.446;-2.000;2023-10-13T01:22:08;10.63;;;5.53;;
55300;SDS011;58302;51.446;-2.000;2023-10-13T01:24:35;12.35;;;4.82;;
55300;SDS011;58302;51.446;-2.000;2023-10-13T01:27:01;7.45;;;4.80;;
55300;SDS011;58302;51.446;-2.000;2023-10-13T01:29:53;9.90;;;4.97;;
55300;SDS011;58302;51.446;-2.000;2023-10-13T01:32:33;12.18;;;5.28;;
55300;SDS011;58302;51.446;-2.000;2023-10-13T01:35:20;7.43;;;5.00;;
55300;SDS011;58302;51.446;-2.000;2023-10-13T01:38:24;10.30;;;5.35;;
55300;SDS011;58302;51.446;-2.000;2023-10-13T01:41:47;13.68;;;6.75;;
55300;SDS011;58302;51.446;-2.000;2023-10-13T01:44:25;12.30;;;6.30;;
55300;SDS011;58302;51.446;-2.000;2023-10-13T01:46:58;9.38;;;5.35;;
55300;SDS011;58302;51.446;-2.000;2023-10-13T01:49:27;8.02;;;4.85;;
55300;SDS011;58302;51.446;-2.000;2023-10-13T01:51:56;8.38;;;5.80;;
55300;SDS011;58302;51.446;-2.000;2023-10-13T01:54:28;8.68;;;4.57;;
55300;SDS011;58302;51.446;-2.000;2023-10-13T01:56:59;8.73;;;5.70;;
55300;SDS011;58302;51.446;-2.000;2023-10-13T01:59:26;11.00;;;5.20;;
55300;SDS011;58302;51.446;-2.000;2023-10-13T02:02:04;12.48;;;6.57;;
55300;SDS011;58302;51.446;-2.000;2023-10-13T02:04:30;11.93;;;6.20;;
55300;SDS011;58302;51.446;-2.000;2023-10-13T02:07:17;14.10;;;6.85;;
55300;SDS011;58302;51.446;-2.000;2023-10-13T02:30:42;18.17;;;7.93;;
55300;SDS011;58302;51.446;-2.000;2023-10-13T02:33:14;17.77;;;8.13;;
55300;SDS011;58302;51.446;-2.000;2023-10-13T02:35:46;15.48;;;8.55;;
55300;SDS011;58302;51.446;-2.000;2023-10-13T02:38:23;17.42;;;9.05;;
55300;SDS011;58302;51.446;-2.000;2023-10-13T02:41:01;21.48;;;9.10;;
55300;SDS011;58302;51.446;-2.000;2023-10-13T02:43:35;16.67;;;8.63;;
55300;SDS011;58302;51.446;-2.000;2023-10-13T02:46:02;15.18;;;8.27;;
55300;SDS011;58302;51.446;-2.000;2023-10-13T02:48:29;15.32;;;8.23;;
55300;SDS011;58302;51.446;-2.000;2023-10-13T02:51:11;14.07;;;8.70;;
55300;SDS011;58302;51.446;-2.000;2023-10-13T02:53:44;11.80;;;8.35;;
55300;SDS011;58302;51.446;-2.000;2023-10-13T02:56:18;13.68;;;7.97;;
55300;SDS011;58302;51.446;-2.000;2023-10-13T02:58:48;14.85;;;9.18;;
55300;SDS011;58302;51.446;-2.000;2023-10-13T03:01:19;16.85;;;9.75;;
55300;SDS011;58302;51.446;-2.000;2023-10-13T03:03:47;17.23;;;7.88;;
55300;SDS011;58302;51.446;-2.000;2023-10-13T03:06:21;18.40;;;8.63;;
55300;SDS011;58302;51.446;-2.000;2023-10-13T03:08:51;16.85;;;9.75;;
55300;SDS011;58302;51.446;-2.000;2023-10-13T03:11:17;16.30;;;8.20;;
55300;SDS011;58302;51.446;-2.000;2023-10-13T03:13:50;17.10;;;8.18;;
55300;SDS011;58302;51.446;-2.000;2023-10-13T03:16:18;18.63;;;8.98;;
55300;SDS011;58302;51.446;-2.000;2023-10-13T03:18:48;14.00;;;8.10;;
55300;SDS011;58302;51.446;-2.000;2023-10-13T03:21:22;18.08;;;9.48;;
55300;SDS011;58302;51.446;-2.000;2023-10-13T03:23:56;15.02;;;8.57;;
55300;SDS011;58302;51.446;-2.000;2023-10-13T03:26:32;20.52;;;9.30;;
55300;SDS011;58302;51.446;-2.000;2023-10-13T03:29:01;16.50;;;8.55;;
55300;SDS011;58302;51.446;-2.000;2023-10-13T03:31:30;19.23;;;8.27;;
55300;SDS011;58302;51.446;-2.000;2023-10-13T03:34:03;15.07;;;8.73;;
55300;SDS011;58302;51.446;-2.000;2023-10-13T03:36:30;16.15;;;8.52;;
55300;SDS011;58302;51.446;-2.000;2023-10-13T03:39:14;11.93;;;7.10;;
55300;SDS011;58302;51.446;-2.000;2023-10-13T03:41:40;19.92;;;8.40;;
55300;SDS011;58302;51.446;-2.000;2023-10-13T03:44:06;20.95;;;9.68;;
55300;SDS011;58302;51.446;-2.000;2023-10-13T03:46:40;14.05;;;8.70;;
55300;SDS011;58302;51.446;-2.000;2023-10-13T03:49:07;25.05;;;9.20;;
55300;SDS011;58302;51.446;-2.000;2023-10-13T03:51:39;24.60;;;9.93;;
55300;SDS011;58302;51.446;-2.000;2023-10-13T03:54:05;21.80;;;8.82;;
55300;SDS011;58302;51.446;-2.000;2023-10-13T03:56:34;20.55;;;10.02;;
55300;SDS011;58302;51.446;-2.000;2023-10-13T03:59:04;17.55;;;9.20;;
55300;SDS011;58302;51.446;-2.000;2023-10-13T04:01:40;15.48;;;8.35;;
55300;SDS011;58302;51.446;-2.000;2023-10-13T04:04:15;17.20;;;9.43;;
55300;SDS011;58302;51.446;-2.000;2023-10-13T04:07:21;17.88;;;8.52;;
55300;SDS011;58302;51.446;-2.000;2023-10-13T04:10:06;17.92;;;9.73;;
55300;SDS011;58302;51.446;-2.000;2023-10-13T04:13:04;20.13;;;9.30;;
55300;SDS011;58302;51.446;-2.000;2023-10-13T04:15:45;27.42;;;10.32;;
55300;SDS011;58302;51.446;-2.000;2023-10-13T04:18:30;19.33;;;8.43;;
55300;SDS011;58302;51.446;-2.000;2023-10-13T04:21:14;22.80;;;9.07;;
55300;SDS011;58302;51.446;-2.000;2023-10-13T04:23:58;25.98;;;8.82;;
55300;SDS011;58302;51.446;-2.000;2023-10-13T04:26:47;24.45;;;8.60;;
55300;SDS011;58302;51.446;-2.000;2023-10-13T04:29:32;22.30;;;10.05;;
55300;SDS011;58302;51.446;-2.000;2023-10-13T04:32:14;24.08;;;9.38;;
55300;SDS011;58302;51.446;-2.000;2023-10-13T04:34:43;15.90;;;9.07;;
55300;SDS011;58302;51.446;-2.000;2023-10-13T04:37:12;14.48;;;7.70;;
55300;SDS011;58302;51.446;-2.000;2023-10-13T04:40:14;23.70;;;9.57;;
55300;SDS011;58302;51.446;-2.000;2023-10-13T04:42:40;20.50;;;9.30;;
55300;SDS011;58302;51.446;-2.000;2023-10-13T04:45:30;21.17;;;7.82;;
55300;SDS011;58302;51.446;-2.000;2023-10-13T04:47:57;16.55;;;7.43;;
55300;SDS011;58302;51.446;-2.000;2023-10-13T04:50:42;23.58;;;7.82;;
55300;SDS011;58302;51.446;-2.000;2023-10-13T04:53:12;18.33;;;8.02;;
55300;SDS011;58302;51.446;-2.000;2023-10-13T04:55:59;20.00;;;8.52;;
55300;SDS011;58302;51.446;-2.000;2023-10-13T04:58:32;15.40;;;7.13;;
55300;SDS011;58302;51.446;-2.000;2023-10-13T05:01:03;13.80;;;7.70;;
55300;SDS011;58302;51.446;-2.000;2023-10-13T05:04:02;13.98;;;6.35;;
55300;SDS011;58302;51.446;-2.000;2023-10-13T05:06:40;13.45;;;5.80;;
55300;SDS011;58302;51.446;-2.000;2023-10-13T05:09:09;12.75;;;6.40;;
55300;SDS011;58302;51.446;-2.000;2023-10-13T05:11:54;16.20;;;6.15;;
55300;SDS011;58302;51.446;-2.000;2023-10-13T05:14:38;20.38;;;6.03;;
55300;SDS011;58302;51.446;-2.000;2023-10-13T05:17:23;11.32;;;5.40;;
55300;SDS011;58302;51.446;-2.000;2023-10-13T05:20:08;16.77;;;5.35;;
55300;SDS011;58302;51.446;-2.000;2023-10-13T05:22:53;18.13;;;7.07;;
55300;SDS011;58302;51.446;-2.000;2023-10-13T05:25:37;13.98;;;5.38;;
55300;SDS011;58302;51.446;-2.000;2023-10-13T05:28:22;15.93;;;5.53;;
55300;SDS011;58302;51.446;-2.000;2023-10-13T05:31:08;14.55;;;5.75;;
55300;SDS011;58302;51.446;-2.000;2023-10-13T05:33:53;11.13;;;5.57;;
55300;SDS011;58302;51.446;-2.000;2023-10-13T05:36:37;17.40;;;6.93;;
55300;SDS011;58302;51.446;-2.000;2023-10-13T05:39:22;15.68;;;6.57;;
55300;SDS011;58302;51.446;-2.000;2023-10-13T05:42:07;15.00;;;5.93;;
55300;SDS011;58302;51.446;-2.000;2023-10-13T05:44:52;13.32;;;5.55;;
55300;SDS011;58302;51.446;-2.000;2023-10-13T05:47:41;21.40;;;8.75;;
55300;SDS011;58302;51.446;-2.000;2023-10-13T05:50:08;15.05;;;5.85;;
55300;SDS011;58302;51.446;-2.000;2023-10-13T05:52:47;19.25;;;7.85;;
55300;SDS011;58302;51.446;-2.000;2023-10-13T05:55:34;19.65;;;8.25;;
55300;SDS011;58302;51.446;-2.000;2023-10-13T05:58:18;19.60;;;6.88;;
55300;SDS011;58302;51.446;-2.000;2023-10-13T06:01:03;20.77;;;7.50;;
55300;SDS011;58302;51.446;-2.000;2023-10-13T06:03:48;23.08;;;8.05;;
55300;SDS011;58302;51.446;-2.000;2023-10-13T06:06:33;17.65;;;7.75;;
55300;SDS011;58302;51.446;-2.000;2023-10-13T06:09:17;18.30;;;6.97;;
55300;SDS011;58302;51.446;-2.000;2023-10-13T06:12:02;21.17;;;6.97;;
55300;SDS011;58302;51.446;-2.000;2023-10-13T06:14:47;19.33;;;6.68;;
55300;SDS011;58302;51.446;-2.000;2023-10-13T06:17:31;21.35;;;7.88;;
55300;SDS011;58302;51.446;-2.000;2023-10-13T06:20:16;17.23;;;8.05;;
55300;SDS011;58302;51.446;-2.000;2023-10-13T06:23:00;30.98;;;9.05;;
55300;SDS011;58302;51.446;-2.000;2023-10-13T06:25:51;13.90;;;6.13;;
55300;SDS011;58302;51.446;-2.000;2023-10-13T06:28:36;18.55;;;6.15;;
55300;SDS011;58302;51.446;-2.000;2023-10-13T06:31:08;14.43;;;5.88;;
55300;SDS011;58302;51.446;-2.000;2023-10-13T06:33:46;15.80;;;8.23;;
55300;SDS011;58302;51.446;-2.000;2023-10-13T06:36:13;18.83;;;6.18;;
55300;SDS011;58302;51.446;-2.000;2023-10-13T06:38:39;16.98;;;6.07;;
55300;SDS011;58302;51.446;-2.000;2023-10-13T06:41:05;15.65;;;5.82;;
55300;SDS011;58302;51.446;-2.000;2023-10-13T06:43:35;11.15;;;5.65;;
55300;SDS011;58302;51.446;-2.000;2023-10-13T06:46:14;10.30;;;5.28;;
55300;SDS011;58302;51.446;-2.000;2023-10-13T06:48:42;16.67;;;5.30;;
55300;SDS011;58302;51.446;-2.000;2023-10-13T06:51:09;13.68;;;5.47;;
55300;SDS011;58302;51.446;-2.000;2023-10-13T06:53:46;34.00;;;7.10;;
55300;SDS011;58302;51.446;-2.000;2023-10-13T06:56:14;19.10;;;6.43;;
55300;SDS011;58302;51.446;-2.000;2023-10-13T06:58:53;14.00;;;5.47;;
55300;SDS011;58302;51.446;-2.000;2023-10-13T07:01:28;19.38;;;6.15;;
55300;SDS011;58302;51.446;-2.000;2023-10-13T07:03:54;19.75;;;6.70;;
55300;SDS011;58302;51.446;-2.000;2023-10-13T07:06:29;9.80;;;4.10;;
55300;SDS011;58302;51.446;-2.000;2023-10-13T07:08:57;18.08;;;5.20;;
55300;SDS011;58302;51.446;-2.000;2023-10-13T07:11:26;10.88;;;4.47;;
55300;SDS011;58302;51.446;-2.000;2023-10-13T07:14:00;9.30;;;4.70;;
55300;SDS011;58302;51.446;-2.000;2023-10-13T07:16:39;11.85;;;4.32;;
55300;SDS011;58302;51.446;-2.000;2023-10-13T07:19:14;13.18;;;4.28;;
55300;SDS011;58302;51.446;-2.000;2023-10-13T07:21:44;15.80;;;4.93;;
55300;SDS011;58302;51.446;-2.000;2023-10-13T07:24:12;10.82;;;4.25;;
55300;SDS011;58302;51.446;-2.000;2023-10-13T07:26:40;12.40;;;4.60;;
55300;SDS011;58302;51.446;-2.000;2023-10-13T07:29:11;13.25;;;5.30;;
55300;SDS011;58302;51.446;-2.000;2023-10-13T07:31:37;12.00;;;5.30;;
55300;SDS011;58302;51.446;-2.000;2023-10-13T07:34:10;12.95;;;6.18;;
55300;SDS011;58302;51.446;-2.000;2023-10-13T07:36:51;12.18;;;5.45;;
55300;SDS011;58302;51.446;-2.000;2023-10-13T07:39:28;20.45;;;6.43;;
55300;SDS011;58302;51.446;-2.000;2023-10-13T07:41:55;23.33;;;5.78;;
55300;SDS011;58302;51.446;-2.000;2023-10-13T07:44:29;19.08;;;7.10;;
55300;SDS011;58302;51.446;-2.000;2023-10-13T07:47:02;13.75;;;6.93;;
55300;SDS011;58302;51.446;-2.000;2023-10-13T07:49:34;15.68;;;5.47;;
55300;SDS011;58302;51.446;-2.000;2023-10-13T07:52:06;17.50;;;5.38;;
55300;SDS011;58302;51.446;-2.000;2023-10-13T07:54:46;14.43;;;5.18;;
55300;SDS011;58302;51.446;-2.000;2023-10-13T07:57:16;17.23;;;5.97;;
55300;SDS011;58302;51.446;-2.000;2023-10-13T07:59:42;13.10;;;5.05;;
55300;SDS011;58302;51.446;-2.000;2023-10-13T08:02:19;16.95;;;6.97;;
55300;SDS011;58302;51.446;-2.000;2023-10-13T08:05:08;17.67;;;6.28;;
55300;SDS011;58302;51.446;-2.000;2023-10-13T08:07:34;17.25;;;6.70;;
55300;SDS011;58302;51.446;-2.000;2023-10-13T08:10:05;16.02;;;6.43;;
55300;SDS011;58302;51.446;-2.000;2023-10-13T08:12:35;13.02;;;6.13;;
55300;SDS011;58302;51.446;-2.000;2023-10-13T08:15:04;12.00;;;5.60;;
55300;SDS011;58302;51.446;-2.000;2023-10-13T08:18:00;18.85;;;5.15;;
55300;SDS011;58302;51.446;-2.000;2023-10-13T08:20:42;10.48;;;5.05;;
55300;SDS011;58302;51.446;-2.000;2023-10-13T08:23:09;15.88;;;5.40;;
55300;SDS011;58302;51.446;-2.000;2023-10-13T08:26:00;15.32;;;5.80;;
55300;SDS011;58302;51.446;-2.000;2023-10-13T08:28:53;15.00;;;6.80;;
55300;SDS011;58302;51.446;-2.000;2023-10-13T08:31:22;13.13;;;5.18;;
55300;SDS011;58302;51.446;-2.000;2023-10-13T08:33:48;11.60;;;4.88;;
55300;SDS011;58302;51.446;-2.000;2023-10-13T08:36:14;15.57;;;4.93;;
55300;SDS011;58302;51.446;-2.000;2023-10-13T08:38:58;11.90;;;4.05;;
55300;SDS011;58302;51.446;-2.000;2023-10-13T08:41:41;12.55;;;5.05;;
55300;SDS011;58302;51.446;-2.000;2023-10-13T08:44:30;6.93;;;3.83;;
55300;SDS011;58302;51.446;-2.000;2023-10-13T08:47:00;10.55;;;4.95;;
55300;SDS011;58302;51.446;-2.000;2023-10-13T08:49:32;12.27;;;4.43;;
55300;SDS011;58302;51.446;-2.000;2023-10-13T08:52:05;12.30;;;5.20;;
55300;SDS011;58302;51.446;-2.000;2023-10-13T08:54:54;12.45;;;4.80;;
55300;SDS011;58302;51.446;-2.000;2023-10-13T08:57:48;11.60;;;4.55;;
55300;SDS011;58302;51.446;-2.000;2023-10-13T09:00:19;9.65;;;3.28;;
55300;SDS011;58302;51.446;-2.000;2023-10-13T09:03:05;10.25;;;4.68;;
55300;SDS011;58302;51.446;-2.000;2023-10-13T09:05:51;15.15;;;4.82;;
55300;SDS011;58302;51.446;-2.000;2023-10-13T09:08:34;11.60;;;4.50;;
55300;SDS011;58302;51.446;-2.000;2023-10-13T09:11:03;13.13;;;5.70;;
55300;SDS011;58302;51.446;-2.000;2023-10-13T09:13:37;9.65;;;5.65;;
55300;SDS011;58302;51.446;-2.000;2023-10-13T09:16:14;6.85;;;3.40;;
55300;SDS011;58302;51.446;-2.000;2023-10-13T09:19:02;10.93;;;3.33;;
55300;SDS011;58302;51.446;-2.000;2023-10-13T09:21:39;5.68;;;3.72;;
55300;SDS011;58302;51.446;-2.000;2023-10-13T09:24:08;7.72;;;3.22;;
55300;SDS011;58302;51.446;-2.000;2023-10-13T09:26:47;9.90;;;3.95;;
55300;SDS011;58302;51.446;-2.000;2023-10-13T09:29:19;10.50;;;4.60;;
55300;SDS011;58302;51.446;-2.000;2023-10-13T09:31:46;11.93;;;3.67;;
55300;SDS011;58302;51.446;-2.000;2023-10-13T09:34:21;9.30;;;4.00;;
55300;SDS011;58302;51.446;-2.000;2023-10-13T09:36:49;6.15;;;3.25;;
55300;SDS011;58302;51.446;-2.000;2023-10-13T09:39:24;6.63;;;2.65;;
55300;SDS011;58302;51.446;-2.000;2023-10-13T09:42:06;8.77;;;2.65;;
55300;SDS011;58302;51.446;-2.000;2023-10-13T09:44:36;4.57;;;2.40;;
55300;SDS011;58302;51.446;-2.000;2023-10-13T09:47:10;7.68;;;3.00;;
55300;SDS011;58302;51.446;-2.000;2023-10-13T09:49:43;6.10;;;3.50;;
55300;SDS011;58302;51.446;-2.000;2023-10-13T09:52:19;11.85;;;3.33;;
55300;SDS011;58302;51.446;-2.000;2023-10-13T09:57:29;8.15;;;2.58;;
55300;SDS011;58302;51.446;-2.000;2023-10-13T10:00:09;8.65;;;2.70;;
55300;SDS011;58302;51.446;-2.000;2023-10-13T10:02:57;7.68;;;2.80;;
55300;SDS011;58302;51.446;-2.000;2023-10-13T10:05:32;7.18;;;2.90;;
55300;SDS011;58302;51.446;-2.000;2023-10-13T10:08:03;10.32;;;4.15;;
55300;SDS011;58302;51.446;-2.000;2023-10-13T10:10:43;5.20;;;2.70;;
55300;SDS011;58302;51.446;-2.000;2023-10-13T10:19:52;9.75;;;2.60;;
55300;SDS011;58302;51.446;-2.000;2023-10-13T10:23:01;7.50;;;3.20;;
55300;SDS011;58302;51.446;-2.000;2023-10-13T10:25:30;9.55;;;3.78;;
55300;SDS011;58302;51.446;-2.000;2023-10-13T10:28:10;6.18;;;3.33;;
55300;SDS011;58302;51.446;-2.000;2023-10-13T10:30:42;7.43;;;2.65;;
55300;SDS011;58302;51.446;-2.000;2023-10-13T10:33:09;9.20;;;2.75;;
55300;SDS011;58302;51.446;-2.000;2023-10-13T10:35:45;7.00;;;2.55;;
55300;SDS011;58302;51.446;-2.000;2023-10-13T10:38:17;6.32;;;2.70;;
55300;SDS011;58302;51.446;-2.000;2023-10-13T10:43:35;6.95;;;2.33;;
55300;SDS011;58302;51.446;-2.000;2023-10-13T10:46:18;6.75;;;2.88;;
55300;SDS011;58302;51.446;-2.000;2023-10-13T10:48:56;5.82;;;2.90;;
55300;SDS011;58302;51.446;-2.000;2023-10-13T10:51:26;4.88;;;2.60;;
55300;SDS011;58302;51.446;-2.000;2023-10-13T10:54:18;10.23;;;3.13;;
55300;SDS011;58302;51.446;-2.000;2023-10-13T10:56:46;6.18;;;2.55;;
55300;SDS011;58302;51.446;-2.000;2023-10-13T10:59:18;6.18;;;2.72;;
55300;SDS011;58302;51.446;-2.000;2023-10-13T11:01:50;9.30;;;3.80;;
55300;SDS011;58302;51.446;-2.000;2023-10-13T11:04:16;8.27;;;2.80;;
55300;SDS011;58302;51.446;-2.000;2023-10-13T11:06:47;6.30;;;2.70;;
55300;SDS011;58302;51.446;-2.000;2023-10-13T11:09:30;6.75;;;3.10;;
55300;SDS011;58302;51.446;-2.000;2023-10-13T11:12:18;4.25;;;1.98;;
55300;SDS011;58302;51.446;-2.000;2023-10-13T11:17:48;10.35;;;3.22;;
55300;SDS011;58302;51.446;-2.000;2023-10-13T11:20:24;13.13;;;2.97;;
55300;SDS011;58302;51.446;-2.000;2023-10-13T11:23:10;8.40;;;2.70;;
55300;SDS011;58302;51.446;-2.000;2023-10-13T11:25:37;6.57;;;2.50;;
55300;SDS011;58302;51.446;-2.000;2023-10-13T11:28:18;11.13;;;3.40;;
55300;SDS011;58302;51.446;-2.000;2023-10-13T11:30:53;6.75;;;2.88;;
55300;SDS011;58302;51.446;-2.000;2023-10-13T11:33:27;7.45;;;2.75;;
55300;SDS011;58302;51.446;-2.000;2023-10-13T11:35:54;9.85;;;3.22;;
55300;SDS011;58302;51.446;-2.000;2023-10-13T11:38:22;11.60;;;3.08;;
55300;SDS011;58302;51.446;-2.000;2023-10-13T11:43:28;7.40;;;3.72;;
55300;SDS011;58302;51.446;-2.000;2023-10-13T11:45:57;11.23;;;3.42;;
55300;SDS011;58302;51.446;-2.000;2023-10-13T11:48:35;8.98;;;3.13;;
55300;SDS011;58302;51.446;-2.000;2023-10-13T11:51:06;8.68;;;3.83;;
55300;SDS011;58302;51.446;-2.000;2023-10-13T11:53:36;6.97;;;2.78;;
55300;SDS011;58302;51.446;-2.000;2023-10-13T11:56:03;4.97;;;2.20;;
55300;SDS011;58302;51.446;-2.000;2023-10-13T11:58:34;6.13;;;2.60;;
55300;SDS011;58302;51.446;-2.000;2023-10-13T12:01:01;10.07;;;2.47;;
55300;SDS011;58302;51.446;-2.000;2023-10-13T12:03:39;6.95;;;2.10;;
55300;SDS011;58302;51.446;-2.000;2023-10-13T12:06:26;5.72;;;2.35;;
55300;SDS011;58302;51.446;-2.000;2023-10-13T12:09:03;4.03;;;1.98;;
55300;SDS011;58302;51.446;-2.000;2023-10-13T12:11:43;8.18;;;2.97;;
55300;SDS011;58302;51.446;-2.000;2023-10-13T12:14:11;4.35;;;2.20;;
55300;SDS011;58302;51.446;-2.000;2023-10-13T12:16:51;5.90;;;2.58;;
55300;SDS011;58302;51.446;-2.000;2023-10-13T12:19:21;4.35;;;2.13;;
55300;SDS011;58302;51.446;-2.000;2023-10-13T12:21:52;6.25;;;2.83;;
55300;SDS011;58302;51.446;-2.000;2023-10-13T12:24:23;5.70;;;2.22;;
55300;SDS011;58302;51.446;-2.000;2023-10-13T12:27:02;5.90;;;1.92;;
55300;SDS011;58302;51.446;-2.000;2023-10-13T12:29:28;4.03;;;1.77;;
55300;SDS011;58302;51.446;-2.000;2023-10-13T12:31:55;6.63;;;2.00;;
55300;SDS011;58302;51.446;-2.000;2023-10-13T12:34:35;7.30;;;1.90;;
55300;SDS011;58302;51.446;-2.000;2023-10-13T12:37:20;3.22;;;1.45;;
55300;SDS011;58302;51.446;-2.000;2023-10-13T12:40:04;4.90;;;1.98;;
55300;SDS011;58302;51.446;-2.000;2023-10-13T12:42:50;3.45;;;1.80;;
55300;SDS011;58302;51.446;-2.000;2023-10-13T12:45:40;5.10;;;1.80;;
55300;SDS011;58302;51.446;-2.000;2023-10-13T12:48:25;5.10;;;2.22;;
55300;SDS011;58302;51.446;-2.000;2023-10-13T12:51:11;8.30;;;3.22;;
55300;SDS011;58302;51.446;-2.000;2023-10-13T12:53:47;5.88;;;2.30;;
55300;SDS011;58302;51.446;-2.000;2023-10-13T12:56:18;6.40;;;2.67;;
55300;SDS011;58302;51.446;-2.000;2023-10-13T12:58:55;7.82;;;2.35;;
55300;SDS011;58302;51.446;-2.000;2023-10-13T13:01:26;10.05;;;2.83;;
55300;SDS011;58302;51.446;-2.000;2023-10-13T13:04:29;4.03;;;1.67;;
55300;SDS011;58302;51.446;-2.000;2023-10-13T13:07:34;9.10;;;2.45;;
55300;SDS011;58302;51.446;-2.000;2023-10-13T13:21:05;7.55;;;1.98;;
55300;SDS011;58302;51.446;-2.000;2023-10-13T13:26:57;7.93;;;2.00;;
55300;SDS011;58302;51.446;-2.000;2023-10-13T13:32:16;8.90;;;2.13;;
55300;SDS011;58302;51.446;-2.000;2023-10-13T13:34:44;7.70;;;3.22;;
55300;SDS011;58302;51.446;-2.000;2023-10-13T13:37:19;10.25;;;3.10;;
55300;SDS011;58302;51.446;-2.000;2023-10-13T13:39:46;3.95;;;2.78;;
55300;SDS011;58302;51.446;-2.000;2023-10-13T13:42:14;5.60;;;2.00;;
55300;SDS011;58302;51.446;-2.000;2023-10-13T13:44:46;6.50;;;2.88;;
55300;SDS011;58302;51.446;-2.000;2023-10-13T13:47:19;3.92;;;1.48;;
55300;SDS011;58302;51.446;-2.000;2023-10-13T13:49:48;3.25;;;1.58;;
55300;SDS011;58302;51.446;-2.000;2023-10-13T13:52:20;2.85;;;1.30;;
55300;SDS011;58302;51.446;-2.000;2023-10-13T13:55:05;3.40;;;1.73;;
55300;SDS011;58302;51.446;-2.000;2023-10-13T13:57:34;2.67;;;1.90;;
55300;SDS011;58302;51.446;-2.000;2023-10-13T14:00:02;2.28;;;1.40;;
55300;SDS011;58302;51.446;-2.000;2023-10-13T14:02:33;8.82;;;2.38;;
55300;SDS011;58302;51.446;-2.000;2023-10-13T14:05:00;4.47;;;1.27;;
55300;SDS011;58302;51.446;-2.000;2023-10-13T14:07:28;6.43;;;2.08;;
55300;SDS011;58302;51.446;-2.000;2023-10-13T14:12:57;4.07;;;1.98;;
55300;SDS011;58302;51.446;-2.000;2023-10-13T14:15:55;8.50;;;2.35;;
55300;SDS011;58302;51.446;-2.000;2023-10-13T14:18:22;5.53;;;2.20;;
55300;SDS011;58302;51.446;-2.000;2023-10-13T14:21:00;10.80;;;4.10;;
55300;SDS011;58302;51.446;-2.000;2023-10-13T14:23:38;7.40;;;2.92;;
55300;SDS011;58302;51.446;-2.000;2023-10-13T14:29:27;6.28;;;3.22;;
55300;SDS011;58302;51.446;-2.000;2023-10-13T14:31:53;6.05;;;2.78;;
55300;SDS011;58302;51.446;-2.000;2023-10-13T14:34:19;10.70;;;2.60;;
55300;SDS011;58302;51.446;-2.000;2023-10-13T14:36:47;3.20;;;1.40;;
55300;SDS011;58302;51.446;-2.000;2023-10-13T14:39:14;2.95;;;1.10;;
55300;SDS011;58302;51.446;-2.000;2023-10-13T14:41:40;1.95;;;1.10;;
55300;SDS011;58302;51.446;-2.000;2023-10-13T14:44:06;3.17;;;1.30;;
55300;SDS011;58302;51.446;-2.000;2023-10-13T14:46:33;2.78;;;2.42;;
55300;SDS011;58302;51.446;-2.000;2023-10-13T14:49:04;6.07;;;1.40;;
55300;SDS011;58302;51.446;-2.000;2023-10-13T14:51:30;2.75;;;2.22;;
55300;SDS011;58302;51.446;-2.000;2023-10-13T14:53:57;5.55;;;2.05;;
55300;SDS011;58302;51.446;-2.000;2023-10-13T14:56:27;6.05;;;1.67;;
55300;SDS011;58302;51.446;-2.000;2023-10-13T14:58:53;5.00;;;1.45;;
55300;SDS011;58302;51.446;-2.000;2023-10-13T15:01:21;0.93;;;0.75;;
55300;SDS011;58302;51.446;-2.000;2023-10-13T15:03:48;2.13;;;0.95;;
55300;SDS011;58302;51.446;-2.000;2023-10-13T15:06:19;0.73;;;0.60;;
55300;SDS011;58302;51.446;-2.000;2023-10-13T15:08:50;2.42;;;0.70;;
55300;SDS011;58302;51.446;-2.000;2023-10-13T15:11:20;0.73;;;0.47;;
55300;SDS011;58302;51.446;-2.000;2023-10-13T15:13:47;0.43;;;0.38;;
55300;SDS011;58302;51.446;-2.000;2023-10-13T15:16:15;0.73;;;0.60;;
55300;SDS011;58302;51.446;-2.000;2023-10-13T15:18:46;1.05;;;0.80;;
55300;SDS011;58302;51.446;-2.000;2023-10-13T15:21:21;1.15;;;0.70;;
55300;SDS011;58302;51.446;-2.000;2023-10-13T15:23:48;1.70;;;0.70;;
55300;SDS011;58302;51.446;-2.000;2023-10-13T15:26:18;1.27;;;0.60;;
55300;SDS011;58302;51.446;-2.000;2023-10-13T15:28:47;1.45;;;0.50;;
55300;SDS011;58302;51.446;-2.000;2023-10-13T15:33:59;0.57;;;0.57;;
55300;SDS011;58302;51.446;-2.000;2023-10-13T15:36:25;0.20;;;0.20;;
55300;SDS011;58302;51.446;-2.000;2023-10-13T15:38:52;0.00;;;0.00;;
55300;SDS011;58302;51.446;-2.000;2023-10-13T15:41:22;0.25;;;0.25;;
55300;SDS011;58302;51.446;-2.000;2023-10-13T15:43:49;0.10;;;0.10;;
55300;SDS011;58302;51.446;-2.000;2023-10-13T15:46:16;0.08;;;0.08;;
55300;SDS011;58302;51.446;-2.000;2023-10-13T15:48:42;0.38;;;0.03;;
55300;SDS011;58302;51.446;-2.000;2023-10-13T15:51:11;0.00;;;0.00;;
55300;SDS011;58302;51.446;-2.000;2023-10-13T15:53:38;0.00;;;0.00;;
55300;SDS011;58302;51.446;-2.000;2023-10-13T15:56:04;0.00;;;0.00;;
55300;SDS011;58302;51.446;-2.000;2023-10-13T15:58:40;0.20;;;0.20;;
55300;SDS011;58302;51.446;-2.000;2023-10-13T16:01:14;0.00;;;0.00;;
55300;SDS011;58302;51.446;-2.000;2023-10-13T16:03:41;0.22;;;0.22;;
55300;SDS011;58302;51.446;-2.000;2023-10-13T16:06:12;0.20;;;0.20;;
55300;SDS011;58302;51.446;-2.000;2023-10-13T16:08:40;0.00;;;0.00;;
55300;SDS011;58302;51.446;-2.000;2023-10-13T16:11:11;0.10;;;0.10;;
55300;SDS011;58302;51.446;-2.000;2023-10-13T16:13:46;0.10;;;0.10;;
55300;SDS011;58302;51.446;-2.000;2023-10-13T16:16:20;0.10;;;0.10;;
55300;SDS011;58302;51.446;-2.000;2023-10-13T16:18:50;0.00;;;0.00;;